Time;durP1;ratioP1;P1;durP2;ratioP2;P2;SDS_P1;SDS_P2;PMS_P1;PMS_P2;Temp;Humidity;BMP_temperature;BMP_pressure;BME280_temperature;BME280_humidity;BME280_pressure;Samples;Min_cycle;Max_cycle;Signal;HPM_P1;HPM_P2
2021/10/21 00:01:49;;;;;;;8.23;5.20;;;;;;;14.32;100.00;98675.69;5015135;28;20227;-78
2021/10/21 00:04:19;;;;;;;7.83;5.00;;;;;;;14.34;100.00;98662.47;4976794;28;20213;-78
2021/10/21 00:06:47;;;;;;;6.17;5.03;;;;;;;14.43;100.00;98644.84;4993614;28;20580;-77
2021/10/21 00:09:17;;;;;;;8.83;5.50;;;;;;;14.43;100.00;98644.03;5007791;28;20243;-78
2021/10/21 00:11:43;;;;;;;6.27;5.10;;;;;;;14.49;100.00;98631.72;5018257;28;20773;-77
2021/10/21 00:14:09;;;;;;;6.47;4.70;;;;;;;14.41;100.00;98611.63;5025023;28;20181;-78
2021/10/21 00:16:37;;;;;;;8.60;5.07;;;;;;;14.50;100.00;98605.97;5011838;28;20232;-77
2021/10/21 00:19:03;;;;;;;6.97;5.10;;;;;;;14.56;100.00;98604.59;4989475;28;20633;-78
2021/10/21 00:21:28;;;;;;;7.73;4.60;;;;;;;14.61;100.00;98612.53;5015861;28;20224;-78
2021/10/21 00:23:54;;;;;;;7.37;4.60;;;;;;;14.66;100.00;98604.91;5008334;28;20589;-78
2021/10/21 00:26:24;;;;;;;6.00;4.50;;;;;;;14.57;100.00;98596.06;5011844;28;20217;-78
2021/10/21 00:28:50;;;;;;;6.53;4.47;;;;;;;14.54;100.00;98585.03;5001893;28;20227;-78
2021/10/21 00:31:17;;;;;;;5.30;4.30;;;;;;;14.51;100.00;98585.72;5011986;28;20212;-78
2021/10/21 00:33:43;;;;;;;6.37;4.50;;;;;;;14.62;100.00;98584.09;5010452;28;20268;-77
2021/10/21 00:36:11;;;;;;;5.97;4.53;;;;;;;14.53;100.00;98573.31;4979484;28;20229;-78
2021/10/21 00:38:39;;;;;;;6.50;4.40;;;;;;;14.58;100.00;98567.59;5000489;28;20176;-78
2021/10/21 00:41:07;;;;;;;5.90;3.93;;;;;;;14.56;100.00;98556.22;5016524;28;20605;-77
2021/10/21 00:43:36;;;;;;;5.97;4.10;;;;;;;14.64;100.00;98541.59;5015964;28;20253;-79
2021/10/21 00:46:04;;;;;;;7.15;4.15;;;;;;;14.50;100.00;98538.47;4981113;28;20228;-77
2021/10/21 00:48:29;;;;;;;4.20;3.70;;;;;;;14.58;100.00;98517.59;5016884;28;20181;-78
2021/10/21 00:50:58;;;;;;;7.57;4.00;;;;;;;14.67;100.00;98499.94;5036691;28;20234;-78
2021/10/21 00:53:23;;;;;;;5.40;4.00;;;;;;;14.59;100.00;98492.66;5021638;28;20210;-78
2021/10/21 00:55:49;;;;;;;6.13;4.10;;;;;;;14.58;100.00;98477.44;5020267;28;20224;-78
2021/10/21 00:58:16;;;;;;;6.43;4.10;;;;;;;14.61;100.00;98454.84;5018403;28;20184;-78
2021/10/21 01:00:47;;;;;;;9.90;4.50;;;;;;;14.53;100.00;98450.38;5003583;28;20224;-78
2021/10/21 01:03:13;;;;;;;5.80;3.93;;;;;;;14.62;100.00;98440.06;5021668;28;20937;-79
2021/10/21 01:05:43;;;;;;;6.57;4.10;;;;;;;14.51;100.00;98425.34;4985056;28;20225;-78
2021/10/21 01:08:11;;;;;;;5.20;3.90;;;;;;;14.49;100.00;98413.97;4996531;28;20280;-78
2021/10/21 01:10:37;;;;;;;5.27;3.43;;;;;;;14.50;100.00;98421.00;4996463;28;20220;-79
2021/10/21 01:13:08;;;;;;;6.23;4.33;;;;;;;14.53;100.00;98409.41;5038859;28;20583;-78
2021/10/21 01:15:33;;;;;;;8.60;4.20;;;;;;;14.69;100.00;98402.00;5006381;28;20221;-78
2021/10/21 01:18:04;;;;;;;6.20;4.30;;;;;;;14.52;100.00;98402.31;4985233;28;20576;-78
2021/10/21 01:20:36;;;;;;;8.03;4.80;;;;;;;14.58;100.00;98384.53;5028982;28;20220;-78
2021/10/21 01:23:04;;;;;;;15.60;5.22;;;;;;;14.67;100.00;98380.50;5037046;28;20204;-78
2021/10/21 01:25:32;;;;;;;9.57;5.57;;;;;;;14.58;100.00;98349.03;5027724;28;20233;-78
2021/10/21 01:28:02;;;;;;;10.57;5.90;;;;;;;14.67;100.00;98316.84;5002885;28;20268;-80
2021/10/21 01:30:28;;;;;;;11.60;6.17;;;;;;;14.68;100.00;98318.41;4997094;28;20216;-79
2021/10/21 01:32:56;;;;;;;11.43;6.20;;;;;;;14.54;100.00;98301.72;5022275;28;20299;-78
2021/10/21 01:35:21;;;;;;;10.13;6.07;;;;;;;14.51;100.00;98302.41;4995183;28;20185;-79
2021/10/21 01:37:47;;;;;;;10.57;6.53;;;;;;;14.71;100.00;98274.78;5003270;28;20192;-79
2021/10/21 01:40:14;;;;;;;13.93;6.73;;;;;;;14.74;100.00;98267.81;4994043;28;20184;-78
2021/10/21 01:42:40;;;;;;;10.67;6.57;;;;;;;14.65;100.00;98300.00;5017775;28;20578;-76
2021/10/21 01:45:16;;;;;;;11.97;6.90;;;;;;;14.54;100.00;98301.72;5025769;28;20201;-77
2021/10/21 01:47:45;;;;;;;9.40;6.13;;;;;;;14.48;100.00;98294.13;5013481;28;20202;-77
2021/10/21 01:50:19;;;;;;;9.80;5.93;;;;;;;14.45;100.00;98272.97;5004532;28;20172;-79
2021/10/21 01:52:44;;;;;;;10.67;6.10;;;;;;;14.59;100.00;98238.59;5005465;28;20204;-79
2021/10/21 01:55:14;;;;;;;9.20;6.80;;;;;;;14.63;100.00;98217.59;4993764;28;20194;-78
2021/10/21 01:57:45;;;;;;;10.30;6.60;;;;;;;14.47;100.00;98205.94;4979175;28;20591;-78
2021/10/21 02:00:14;;;;;;;9.47;6.60;;;;;;;14.42;100.00;98189.03;5007162;28;20185;-78
2021/10/21 02:02:42;;;;;;;15.10;6.37;;;;;;;14.44;100.00;98181.28;5002395;28;20239;-78
2021/10/21 02:05:08;;;;;;;11.87;6.43;;;;;;;14.41;100.00;98171.88;4976882;28;20671;-77
2021/10/21 02:07:35;;;;;;;9.87;6.00;;;;;;;14.39;100.00;98156.97;4977161;28;20205;-77
2021/10/21 02:10:15;;;;;;;9.70;6.00;;;;;;;14.42;100.00;98151.59;4981539;28;20186;-76
2021/10/21 02:12:43;;;;;;;10.30;6.20;;;;;;;14.34;100.00;98149.03;5032095;28;20227;-77
2021/10/21 02:15:09;;;;;;;13.00;6.10;;;;;;;14.38;100.00;98139.81;5012421;28;20217;-77
2021/10/21 02:17:37;;;;;;;11.27;6.37;;;;;;;14.32;100.00;98145.88;5012853;28;20195;-77
2021/10/21 02:20:07;;;;;;;11.83;7.17;;;;;;;14.28;100.00;98145.84;4997692;28;20227;-77
2021/10/21 02:22:33;;;;;;;12.60;7.10;;;;;;;14.26;100.00;98129.00;5015251;28;20242;-77
2021/10/21 02:25:03;;;;;;;10.33;6.43;;;;;;;14.23;100.00;98116.06;5015565;28;20693;-77
2021/10/21 02:27:31;;;;;;;10.00;6.70;;;;;;;14.36;100.00;98095.69;4978196;28;20590;-77
2021/10/21 02:29:59;;;;;;;10.40;7.43;;;;;;;14.40;100.00;98077.41;4977306;28;20191;-77
2021/10/21 02:32:25;;;;;;;11.63;7.53;;;;;;;14.45;100.00;98074.41;4997222;28;20220;-79
2021/10/21 02:34:53;;;;;;;11.10;6.90;;;;;;;14.49;100.00;98064.34;5016533;28;20196;-80
2021/10/21 02:37:19;;;;;;;10.33;6.90;;;;;;;14.44;100.00;98061.88;5000186;28;20224;-77
2021/10/21 02:39:46;;;;;;;10.47;7.10;;;;;;;14.52;100.00;98074.53;4966369;28;20185;-78
2021/10/21 02:42:14;;;;;;;11.57;7.45;;;;;;;14.55;100.00;98062.09;5013919;28;20583;-78
2021/10/21 02:44:40;;;;;;;11.27;7.63;;;;;;;14.53;100.00;98054.28;5036566;28;20215;-78
2021/10/21 02:47:05;;;;;;;11.20;7.33;;;;;;;14.53;100.00;98031.63;4981929;28;20224;-78
2021/10/21 02:49:31;;;;;;;7.77;6.80;;;;;;;14.64;100.00;98028.72;5036507;28;20192;-78
2021/10/21 02:51:57;;;;;;;9.70;6.90;;;;;;;14.58;100.00;98021.19;5008375;28;20220;-79
2021/10/21 02:54:26;;;;;;;9.90;7.40;;;;;;;14.56;100.00;98001.66;4985809;28;20188;-79
2021/10/21 02:56:56;;;;;;;9.00;7.00;;;;;;;14.62;100.00;97992.00;5011724;28;20216;-79
2021/10/21 02:59:21;;;;;;;9.57;7.40;;;;;;;14.76;100.00;97987.59;5036785;28;20181;-78
2021/10/21 03:01:47;;;;;;;11.10;7.43;;;;;;;14.67;100.00;97987.03;4992503;28;20617;-78
2021/10/21 03:04:13;;;;;;;7.93;7.03;;;;;;;14.75;100.00;97979.75;4982866;28;20212;-77
2021/10/21 03:06:39;;;;;;;7.97;6.70;;;;;;;14.70;100.00;97961.69;5011326;28;20224;-79
2021/10/21 03:09:08;;;;;;;8.27;6.27;;;;;;;14.70;100.00;97928.91;5025806;28;20210;-80
2021/10/21 03:11:36;;;;;;;7.37;6.60;;;;;;;14.78;100.00;97911.50;5017905;28;20255;-81
2021/10/21 03:14:03;;;;;;;8.97;6.50;;;;;;;14.82;100.00;97930.69;5022002;28;20272;-78
2021/10/21 03:16:34;;;;;;;8.90;6.20;;;;;;;14.90;100.00;97918.69;4992522;28;20216;-81
2021/10/21 03:18:59;;;;;;;8.77;6.67;;;;;;;14.79;100.00;97895.88;5025537;28;20636;-79
2021/10/21 03:21:27;;;;;;;8.73;6.40;;;;;;;14.84;100.00;97874.50;4998086;28;20225;-80
2021/10/21 03:23:53;;;;;;;7.90;6.70;;;;;;;14.86;100.00;97865.94;4983515;28;20205;-78
2021/10/21 03:26:18;;;;;;;8.90;6.40;;;;;;;14.87;100.00;97853.84;4970635;28;20220;-78
2021/10/21 03:28:46;;;;;;;7.00;6.03;;;;;;;14.84;100.00;97836.25;5038292;28;20193;-78
2021/10/21 03:31:14;;;;;;;7.50;5.67;;;;;;;14.86;100.00;97827.69;5034460;28;20224;-77
2021/10/21 03:33:42;;;;;;;9.07;6.03;;;;;;;14.89;100.00;97816.81;4985903;28;20216;-78
2021/10/21 03:36:07;;;;;;;10.10;5.90;;;;;;;14.82;100.00;97838.56;5001492;28;20224;-79
2021/10/21 03:38:38;;;;;;;11.17;6.17;;;;;;;14.79;100.00;97811.16;5002554;28;20533;-79
2021/10/21 03:41:03;;;;;;;7.43;5.83;;;;;;;14.77;100.00;97814.25;5036103;28;20228;-79
2021/10/21 03:43:29;;;;;;;8.00;5.67;;;;;;;14.76;100.00;97801.78;4998262;28;20551;-77
2021/10/21 03:45:56;;;;;;;9.57;5.83;;;;;;;14.72;100.00;97797.41;4980654;28;20229;-78
2021/10/21 03:48:24;;;;;;;6.40;4.97;;;;;;;14.70;100.00;97805.97;4982599;28;20184;-78
2021/10/21 03:50:52;;;;;;;5.90;5.27;;;;;;;14.66;100.00;97809.81;5021732;28;20230;-77
2021/10/21 03:53:18;;;;;;;5.17;4.67;;;;;;;14.68;100.00;97818.41;5006188;28;20231;-78
2021/10/21 03:55:46;;;;;;;5.13;4.50;;;;;;;14.65;100.00;97811.75;4999406;28;20216;-79
2021/10/21 03:58:11;;;;;;;4.93;3.97;;;;;;;14.60;100.00;97827.66;4981812;28;20183;-78
2021/10/21 04:00:37;;;;;;;4.73;4.10;;;;;;;14.58;100.00;97813.59;5002409;28;20228;-78
2021/10/21 04:03:02;;;;;;;5.73;4.17;;;;;;;14.61;100.00;97821.03;5027394;28;20213;-79
2021/10/21 04:05:28;;;;;;;4.80;4.00;;;;;;;14.54;100.00;97831.88;5001569;28;20233;-77
2021/10/21 04:07:56;;;;;;;5.80;3.80;;;;;;;14.55;100.00;97824.47;5014716;28;20176;-79
2021/10/21 04:10:24;;;;;;;4.10;3.50;;;;;;;14.58;100.00;97829.97;4986137;28;20558;-78
2021/10/21 04:12:50;;;;;;;3.87;3.30;;;;;;;14.58;100.00;97827.25;5024695;28;20235;-75
2021/10/21 04:15:15;;;;;;;5.47;3.27;;;;;;;14.55;100.00;97814.31;4984638;28;20192;-80
2021/10/21 04:17:43;;;;;;;4.10;3.30;;;;;;;14.49;100.00;97817.75;4991264;28;20207;-79
2021/10/21 04:20:12;;;;;;;3.63;3.17;;;;;;;14.48;100.00;97819.66;5001911;28;20203;-80
2021/10/21 04:22:40;;;;;;;4.87;3.70;;;;;;;14.43;100.00;97813.72;5017422;28;20201;-79
2021/10/21 04:25:08;;;;;;;5.17;3.20;;;;;;;14.39;100.00;97813.66;5004422;28;20208;-79
2021/10/21 04:27:33;;;;;;;2.60;2.40;;;;;;;14.28;100.00;97801.00;5006748;28;20160;-79
2021/10/21 04:30:02;;;;;;;4.10;2.70;;;;;;;14.25;100.00;97813.44;5020510;28;20192;-79
2021/10/21 04:32:28;;;;;;;4.50;2.90;;;;;;;14.26;100.00;97820.47;5033544;28;20232;-80
2021/10/21 04:34:57;;;;;;;3.77;2.67;;;;;;;14.26;100.00;97817.72;5004749;28;20181;-79
2021/10/21 04:37:22;;;;;;;3.10;2.60;;;;;;;14.22;100.00;97820.78;5004866;28;20221;-78
2021/10/21 04:39:47;;;;;;;2.73;1.90;;;;;;;14.10;100.00;97810.03;5021743;28;20188;-80
2021/10/21 04:42:13;;;;;;;2.33;1.80;;;;;;;13.99;100.00;97798.13;5022156;28;20221;-80
2021/10/21 04:44:43;;;;;;;2.73;1.50;;;;;;;14.05;100.00;97804.91;5020573;28;20214;-79
2021/10/21 04:47:11;;;;;;;3.67;1.47;;;;;;;13.97;100.00;97823.06;5003461;28;20231;-79
2021/10/21 04:49:36;;;;;;;2.17;1.50;;;;;;;13.84;100.00;97829.84;4987565;28;20243;-78
2021/10/21 04:52:04;;;;;;;2.87;1.20;;;;;;;13.74;100.00;97828.84;5000607;28;20229;-79
2021/10/21 04:54:34;;;;;;;2.60;1.07;;;;;;;13.73;100.00;97841.69;5001343;28;20278;-79
2021/10/21 04:57:03;;;;;;;2.23;0.80;;;;;;;13.65;100.00;97837.25;5001455;28;20219;-78
2021/10/21 04:59:28;;;;;;;3.27;1.00;;;;;;;13.62;100.00;97843.41;5018636;28;20676;-79
2021/10/21 05:01:56;;;;;;;1.73;0.87;;;;;;;13.60;100.00;97834.81;4999828;28;20228;-79
2021/10/21 05:04:22;;;;;;;1.13;0.70;;;;;;;13.65;100.00;97826.34;4998052;28;20204;-78
2021/10/21 05:06:50;;;;;;;3.17;0.90;;;;;;;13.53;100.00;97840.13;5002612;28;20224;-79
2021/10/21 05:09:22;;;;;;;0.97;0.60;;;;;;;13.49;100.00;97844.72;4981090;28;20257;-78
2021/10/21 05:11:48;;;;;;;3.00;0.77;;;;;;;13.45;100.00;97845.78;4995086;28;20236;-78
2021/10/21 05:14:16;;;;;;;0.83;0.50;;;;;;;13.35;100.00;97837.38;5022228;28;20263;-79
2021/10/21 05:16:43;;;;;;;2.97;0.50;;;;;;;13.29;100.00;97844.28;5002309;28;20256;-80
2021/10/21 05:19:09;;;;;;;0.70;0.50;;;;;;;13.20;100.00;97846.41;5026154;28;20606;-78
2021/10/21 05:21:41;;;;;;;0.53;0.50;;;;;;;13.21;100.00;97858.91;4984468;28;20224;-80
2021/10/21 05:24:09;;;;;;;1.03;0.50;;;;;;;13.22;100.00;97855.03;5009135;28;20232;-78
2021/10/21 05:26:37;;;;;;;2.13;0.60;;;;;;;13.23;100.00;97856.63;5020988;28;20220;-77
2021/10/21 05:29:03;;;;;;;1.40;0.67;;;;;;;13.14;100.00;97853.31;5011698;28;20193;-78
2021/10/21 05:31:33;;;;;;;2.10;0.50;;;;;;;13.11;100.00;97856.72;5019548;28;20221;-78
2021/10/21 05:33:58;;;;;;;1.97;0.73;;;;;;;13.18;100.00;97846.78;4977188;28;20554;-79
2021/10/21 05:36:24;;;;;;;4.53;1.37;;;;;;;13.20;100.00;97847.19;4986941;28;20235;-79
2021/10/21 05:38:52;;;;;;;1.60;0.73;;;;;;;13.27;100.00;97850.09;5017145;28;20193;-78
2021/10/21 05:41:17;;;;;;;1.30;0.60;;;;;;;13.18;100.00;97851.44;5019642;28;20592;-78
2021/10/21 05:43:47;;;;;;;1.90;0.97;;;;;;;13.20;100.00;97844.47;5024520;28;20208;-78
2021/10/21 05:46:13;;;;;;;1.37;0.80;;;;;;;13.25;100.00;97848.88;5039804;28;20231;-80
2021/10/21 05:48:41;;;;;;;2.30;0.93;;;;;;;13.15;100.00;97846.72;5021684;28;20184;-80
2021/10/21 05:51:06;;;;;;;1.30;0.70;;;;;;;13.16;100.00;97840.88;4988324;28;20769;-78
2021/10/21 05:53:32;;;;;;;3.83;1.03;;;;;;;13.18;100.00;97821.47;4992015;28;20846;-81
2021/10/21 05:56:00;;;;;;;2.63;0.80;;;;;;;13.13;100.00;97827.19;5025908;28;20228;-78
2021/10/21 05:58:25;;;;;;;2.97;1.00;;;;;;;13.25;100.00;97821.63;5027678;28;20192;-80
2021/10/21 06:00:53;;;;;;;3.27;0.90;;;;;;;13.15;100.00;97819.47;4988636;28;20221;-79
2021/10/21 06:03:21;;;;;;;1.83;0.80;;;;;;;13.20;100.00;97813.72;4972448;28;20216;-79
2021/10/21 06:05:51;;;;;;;2.73;0.97;;;;;;;13.19;100.00;97812.94;4990158;28;20232;-78
2021/10/21 06:08:19;;;;;;;1.63;0.93;;;;;;;13.14;100.00;97817.88;5008628;28;20677;-81
2021/10/21 06:10:47;;;;;;;2.37;0.70;;;;;;;12.97;100.00;97803.91;5021915;28;20303;-79
2021/10/21 06:13:12;;;;;;;3.20;1.00;;;;;;;12.89;100.00;97807.59;5004507;28;20686;-80
2021/10/21 06:15:38;;;;;;;1.23;0.87;;;;;;;12.78;100.00;97799.16;5019361;28;20299;-78
2021/10/21 06:18:11;;;;;;;1.93;0.80;;;;;;;12.89;100.00;97797.50;5027430;28;20413;-79
2021/10/21 06:20:41;;;;;;;2.87;1.00;;;;;;;12.95;100.00;97806.16;5010749;28;20698;-79
2021/10/21 06:23:07;;;;;;;1.97;1.00;;;;;;;12.79;100.00;97800.75;5007413;28;20575;-80
2021/10/21 06:25:35;;;;;;;2.23;1.00;;;;;;;12.77;100.00;97800.31;5002562;28;20235;-80
2021/10/21 06:28:05;;;;;;;2.57;0.90;;;;;;;12.69;100.00;97792.31;5025836;28;20180;-77
2021/10/21 06:30:34;;;;;;;2.37;1.10;;;;;;;12.67;100.00;97789.16;5008767;28;20213;-80
2021/10/21 06:33:01;;;;;;;2.80;1.43;;;;;;;12.63;100.00;97777.41;4973097;28;20225;-80
2021/10/21 06:35:30;;;;;;;3.87;1.00;;;;;;;12.68;100.00;97775.19;5016452;28;20219;-76
2021/10/21 06:37:55;;;;;;;5.67;1.50;;;;;;;12.59;100.00;97773.03;5023414;28;20175;-80
2021/10/21 06:40:21;;;;;;;4.73;1.03;;;;;;;12.57;100.00;97767.16;5012043;28;20244;-79
2021/10/21 06:42:49;;;;;;;3.77;1.20;;;;;;;12.59;100.00;97770.31;4966911;28;20214;-77
2021/10/21 06:45:23;;;;;;;2.40;0.90;;;;;;;12.48;100.00;97769.28;5000899;28;20468;-80
2021/10/21 06:47:51;;;;;;;3.17;1.13;;;;;;;12.48;100.00;97780.19;5010175;28;20188;-78
2021/10/21 06:50:20;;;;;;;2.93;1.20;;;;;;;12.59;100.00;97775.75;4982824;28;20176;-77
2021/10/21 06:52:47;;;;;;;1.93;0.90;;;;;;;12.55;100.00;97780.34;5007279;28;20200;-80
2021/10/21 06:55:14;;;;;;;3.00;1.17;;;;;;;12.43;100.00;97770.34;4997716;28;20178;-79
2021/10/21 06:57:49;;;;;;;1.97;0.83;;;;;;;12.58;100.00;97774.16;4985278;28;20190;-81
2021/10/21 07:00:17;;;;;;;3.03;1.03;;;;;;;12.46;100.00;97771.56;4978176;28;20191;-80
2021/10/21 07:02:43;;;;;;;2.67;1.10;;;;;;;12.32;100.00;97776.69;5006171;28;20200;-83
2021/10/21 07:05:12;;;;;;;4.53;1.00;;;;;;;12.35;100.00;97771.31;5033798;28;20209;-79
2021/10/21 07:07:42;;;;;;;4.53;1.60;;;;;;;12.24;100.00;97769.50;5002377;28;20181;-80
2021/10/21 07:10:09;;;;;;;2.97;1.40;;;;;;;12.33;100.00;97772.84;4988499;28;20604;-81
2021/10/21 07:12:38;;;;;;;3.63;1.57;;;;;;;12.37;100.00;97768.25;5021766;28;20204;-82
2021/10/21 07:15:07;;;;;;;2.00;0.93;;;;;;;12.28;100.00;97761.44;5003130;28;20550;-81
2021/10/21 07:17:33;;;;;;;3.40;1.10;;;;;;;12.28;100.00;97755.97;5004999;28;20204;-81
2021/10/21 07:20:03;;;;;;;2.80;1.00;;;;;;;12.31;100.00;97753.34;4988126;28;20196;-80
2021/10/21 07:22:29;;;;;;;3.10;0.90;;;;;;;12.28;100.00;97754.81;5023606;28;20281;-81
2021/10/21 07:24:54;;;;;;;1.70;1.00;;;;;;;12.21;100.00;97770.19;5022811;28;20207;-80
2021/10/21 07:27:20;;;;;;;2.40;1.50;;;;;;;12.20;100.00;97781.44;4982813;28;20249;-80
2021/10/21 07:29:48;;;;;;;3.57;1.30;;;;;;;12.14;100.00;97775.50;4983322;28;20185;-80
2021/10/21 07:32:14;;;;;;;2.87;0.90;;;;;;;12.08;100.00;97776.88;5015571;28;20703;-79
2021/10/21 07:34:42;;;;;;;2.37;0.80;;;;;;;12.01;100.00;97774.00;4985635;28;20208;-82
2021/10/21 07:37:09;;;;;;;3.00;0.97;;;;;;;12.02;100.00;97775.56;5001274;28;20221;-80
2021/10/21 07:39:35;;;;;;;2.90;1.00;;;;;;;11.97;100.00;97758.72;4985505;28;20182;-80
2021/10/21 07:42:03;;;;;;;2.57;1.40;;;;;;;11.94;100.00;97770.28;4999935;28;20220;-79
2021/10/21 07:44:37;;;;;;;1.47;0.97;;;;;;;11.86;100.00;97784.06;5022015;28;20303;-80
2021/10/21 07:47:03;;;;;;;3.47;1.30;;;;;;;11.90;100.00;97801.28;5023501;28;20276;-80
2021/10/21 07:49:31;;;;;;;1.57;1.30;;;;;;;11.75;100.00;97821.09;5002254;28;20618;-79
2021/10/21 07:52:02;;;;;;;1.43;0.80;;;;;;;11.70;100.00;97845.78;4975753;28;20217;-78
2021/10/21 07:54:30;;;;;;;1.40;0.60;;;;;;;11.62;100.00;97839.38;4964558;28;20211;-79
2021/10/21 07:56:58;;;;;;;1.17;0.50;;;;;;;11.51;100.00;97864.69;5006185;28;20220;-78
2021/10/21 07:59:25;;;;;;;1.67;0.47;;;;;;;11.39;100.00;97848.41;5019391;28;20191;-79
2021/10/21 08:01:51;;;;;;;1.17;0.40;;;;;;;11.38;100.00;97898.44;5007178;28;20235;-79
2021/10/21 08:04:17;;;;;;;0.70;0.70;;;;;;;11.37;100.00;97886.00;5015079;28;20742;-78
2021/10/21 08:06:50;;;;;;;0.60;0.40;;;;;;;11.31;100.00;97925.41;5008799;28;20220;-78
2021/10/21 08:09:18;;;;;;;1.00;0.40;;;;;;;11.24;100.00;97941.50;5018799;28;20251;-80
2021/10/21 08:11:44;;;;;;;0.47;0.20;;;;;;;11.20;100.00;97945.25;5011858;28;20308;-80
2021/10/21 08:14:14;;;;;;;0.80;0.37;;;;;;;11.14;100.00;97982.72;4985097;28;20300;-78
2021/10/21 08:16:46;;;;;;;0.87;0.50;;;;;;;11.14;100.00;97995.50;5023327;28;20212;-76
2021/10/21 08:19:14;;;;;;;0.30;0.30;;;;;;;11.13;100.00;98013.75;5017480;28;20180;-78
2021/10/21 08:21:40;;;;;;;0.30;0.20;;;;;;;11.11;100.00;98028.00;5010253;28;20371;-79
2021/10/21 08:24:08;;;;;;;0.87;0.47;;;;;;;11.21;100.00;98041.91;5013175;28;20883;-77
2021/10/21 08:26:37;;;;;;;2.10;0.40;;;;;;;11.39;100.00;98054.13;4984797;28;20219;-77
2021/10/21 08:29:03;;;;;;;0.77;0.50;;;;;;;11.32;100.00;98067.50;5001477;28;20188;-77
2021/10/21 08:31:28;;;;;;;0.40;0.30;;;;;;;11.29;100.00;98085.25;5009555;28;20228;-77
2021/10/21 08:33:54;;;;;;;1.30;0.40;;;;;;;11.29;100.00;98095.34;4961370;28;20263;-78
2021/10/21 08:36:22;;;;;;;2.33;0.40;;;;;;;11.23;100.00;98113.78;4949367;28;20221;-78
2021/10/21 08:38:50;;;;;;;1.03;0.47;;;;;;;11.24;100.00;98137.09;5016241;28;20184;-77
2021/10/21 08:41:22;;;;;;;1.50;0.70;;;;;;;11.12;100.00;98149.06;5012960;28;20216;-78
2021/10/21 08:43:53;;;;;;;0.87;0.40;;;;;;;11.03;100.00;98162.78;4998628;28;20730;-80
2021/10/21 08:46:27;;;;;;;3.30;0.63;;;;;;;11.05;100.00;98192.31;4982332;28;20703;-79
2021/10/21 08:49:02;;;;;;;2.20;0.83;;;;;;;10.97;100.00;98204.03;5019622;28;20561;-78
2021/10/21 08:51:31;;;;;;;2.07;0.50;;;;;;;11.06;100.00;98229.19;5017877;28;20227;-78
2021/10/21 08:54:00;;;;;;;2.33;0.67;;;;;;;10.86;100.00;98240.88;5015679;28;20554;-80
2021/10/21 08:56:26;;;;;;;2.40;0.50;;;;;;;10.91;100.00;98257.75;5018284;28;20235;-79
2021/10/21 08:58:53;;;;;;;3.10;0.50;;;;;;;10.70;100.00;98261.63;5020912;28;20188;-78
2021/10/21 09:01:22;;;;;;;3.47;0.70;;;;;;;10.78;100.00;98287.91;5003830;28;20303;-78
2021/10/21 09:04:14;;;;;;;2.77;0.50;;;;;;;10.73;100.00;98292.75;5002302;28;20204;-80
2021/10/21 09:09:05;;;;;;;3.70;0.60;;;;;;;10.83;100.00;98329.22;5018416;28;20180;-79
2021/10/21 09:11:33;;;;;;;1.60;0.60;;;;;;;10.78;100.00;98355.78;5035166;28;20220;-78
2021/10/21 09:14:06;;;;;;;1.30;0.63;;;;;;;10.78;100.00;98361.22;5001466;28;20200;-79
2021/10/21 09:16:32;;;;;;;3.30;0.80;;;;;;;10.71;100.00;98374.50;5003428;28;20221;-80
2021/10/21 09:18:57;;;;;;;4.80;1.40;;;;;;;10.81;100.00;98404.00;4987151;28;20188;-80
2021/10/21 09:21:35;;;;;;;3.43;1.20;;;;;;;10.77;100.00;98408.50;5005659;28;20228;-79
2021/10/21 09:24:35;;;;;;;3.33;1.10;;;;;;;10.91;100.00;98426.13;4988064;28;20297;-79
2021/10/21 09:27:19;;;;;;;2.60;1.13;;;;;;;10.92;100.00;98432.38;5003022;28;20225;-78
2021/10/21 09:29:55;;;;;;;1.80;1.00;;;;;;;11.04;100.00;98454.97;4992544;28;20184;-80
2021/10/21 09:32:27;;;;;;;3.90;1.10;;;;;;;11.18;100.00;98447.38;4986650;28;20228;-78
2021/10/21 09:35:02;;;;;;;2.70;0.97;;;;;;;11.13;100.00;98461.97;5003930;28;20173;-77
2021/10/21 09:37:31;;;;;;;3.63;0.90;;;;;;;11.23;100.00;98477.09;5003922;28;20216;-78
2021/10/21 09:40:00;;;;;;;4.67;0.87;;;;;;;11.29;100.00;98486.63;5021065;28;20785;-80
2021/10/21 09:42:30;;;;;;;1.77;0.90;;;;;;;11.36;100.00;98497.78;5019792;28;20295;-80
2021/10/21 09:45:14;;;;;;;3.33;0.70;;;;;;;11.43;100.00;98493.41;5001865;28;20212;-78
2021/10/21 09:47:46;;;;;;;3.60;0.97;;;;;;;11.59;100.00;98519.72;5021304;28;20208;-78
2021/10/21 09:50:32;;;;;;;2.83;0.80;;;;;;;11.63;100.00;98517.94;5019935;28;20187;-79
2021/10/21 09:53:22;;;;;;;2.97;0.77;;;;;;;11.42;100.00;98540.72;5015729;28;20205;-78
2021/10/21 09:56:07;;;;;;;1.97;0.80;;;;;;;11.39;100.00;98548.75;5001665;28;20225;-79
2021/10/21 09:58:36;;;;;;;2.57;0.80;;;;;;;11.47;100.00;98570.50;4996332;28;20738;-77
2021/10/21 10:01:12;;;;;;;2.23;1.03;;;;;;;11.57;100.00;98580.97;5002995;28;20231;-78
2021/10/21 10:03:42;;;;;;;2.77;0.70;;;;;;;11.66;100.00;98568.13;5029625;28;20222;-79
2021/10/21 10:06:14;;;;;;;2.23;0.80;;;;;;;11.72;100.00;98575.78;5001770;28;20233;-78
2021/10/21 10:08:44;;;;;;;2.67;0.83;;;;;;;11.90;100.00;98590.81;5011877;28;20561;-78
2021/10/21 10:11:18;;;;;;;4.33;1.10;;;;;;;11.91;100.00;98609.53;5020222;28;20784;-79
2021/10/21 10:13:53;;;;;;;4.10;0.87;;;;;;;11.84;100.00;98613.13;4995260;28;20205;-80
2021/10/21 10:16:22;;;;;;;3.37;0.90;;;;;;;11.60;100.00;98631.97;4968683;28;20233;-79
2021/10/21 10:18:47;;;;;;;3.07;1.23;;;;;;;11.52;100.00;98643.72;4998837;28;20630;-78
2021/10/21 10:21:22;;;;;;;4.47;0.93;;;;;;;11.50;100.00;98642.41;5020672;28;20227;-77
2021/10/21 10:24:00;;;;;;;4.23;1.30;;;;;;;11.54;100.00;98646.91;5011418;28;20225;-79
2021/10/21 10:26:54;;;;;;;2.33;0.93;;;;;;;11.58;100.00;98658.69;4999304;28;20233;-79
2021/10/21 10:29:44;;;;;;;3.03;0.90;;;;;;;11.71;100.00;98676.72;4995670;28;20246;-78
2021/10/21 10:32:42;;;;;;;4.20;1.27;;;;;;;11.68;100.00;98671.91;5036075;28;20752;-78
2021/10/21 10:35:14;;;;;;;3.13;0.87;;;;;;;11.74;100.00;98674.13;4999002;28;20438;-78
2021/10/21 10:37:41;;;;;;;3.23;1.33;;;;;;;11.93;100.00;98680.75;5015697;28;20181;-79
2021/10/21 10:40:09;;;;;;;2.93;1.00;;;;;;;11.85;100.00;98701.75;5032586;28;20177;-76
2021/10/21 10:42:42;;;;;;;2.43;1.20;;;;;;;12.02;100.00;98692.38;5005756;28;20208;-80
2021/10/21 10:45:12;;;;;;;3.07;0.83;;;;;;;11.91;100.00;98696.59;5020731;28;20232;-79
2021/10/21 10:47:50;;;;;;;3.87;1.00;;;;;;;11.83;100.00;98714.88;4985281;28;20200;-79
2021/10/21 10:50:25;;;;;;;1.73;0.63;;;;;;;11.86;100.00;98730.56;5018426;28;20281;-79
2021/10/21 10:53:07;;;;;;;2.73;0.77;;;;;;;11.82;100.00;98751.38;5016213;28;20208;-78
2021/10/21 10:55:47;;;;;;;1.73;0.70;;;;;;;11.80;100.00;98772.66;5035013;28;20655;-79
2021/10/21 10:58:37;;;;;;;3.40;0.90;;;;;;;11.66;100.00;98791.09;5037350;28;20670;-79
2021/10/21 11:01:05;;;;;;;1.13;0.70;;;;;;;11.65;100.00;98797.69;4996403;28;20645;-78
2021/10/21 11:03:31;;;;;;;2.20;0.50;;;;;;;11.60;100.00;98808.72;4966212;28;20205;-78
2021/10/21 11:06:02;;;;;;;2.90;0.80;;;;;;;11.50;100.00;98810.97;5019896;28;20228;-76
2021/10/21 11:08:49;;;;;;;1.93;0.57;;;;;;;11.36;100.00;98819.28;5022471;28;20188;-80
2021/10/21 11:11:56;;;;;;;2.97;0.80;;;;;;;11.26;100.00;98818.81;4998161;28;20284;-79
2021/10/21 11:14:30;;;;;;;3.63;0.70;;;;;;;11.21;100.00;98827.94;4965194;28;20185;-79
2021/10/21 11:16:58;;;;;;;1.47;0.50;;;;;;;11.29;100.00;98829.84;5046052;28;20472;-78
2021/10/21 11:19:41;;;;;;;2.87;1.00;;;;;;;11.30;100.00;98828.72;5029682;28;20806;-79
2021/10/21 11:22:09;;;;;;;3.93;1.10;;;;;;;11.59;100.00;98826.97;5014573;28;20233;-78
2021/10/21 11:24:53;;;;;;;2.80;1.07;;;;;;;11.80;100.00;98846.09;4988448;28;20296;-78
2021/10/21 11:27:44;;;;;;;2.03;0.80;;;;;;;11.74;100.00;98853.63;5036115;28;20724;-78
2021/10/21 11:30:15;;;;;;;2.93;1.00;;;;;;;11.62;100.00;98858.13;5005253;28;20282;-78
2021/10/21 11:32:41;;;;;;;1.90;0.90;;;;;;;11.45;100.00;98865.53;4980911;28;20710;-79
2021/10/21 11:35:14;;;;;;;2.07;0.87;;;;;;;11.56;100.00;98873.03;4980675;28;20805;-77
2021/10/21 11:38:00;;;;;;;3.87;0.80;;;;;;;11.92;100.00;98876.94;5018305;28;20199;-78